sensor_id;sensor_type;location;lat;lon;timestamp;temperature;humidity
17807;DHT22;9027;48.938;9.182;2023-03-21T00:00:30;12.40;99.90
17807;DHT22;9027;48.938;9.182;2023-03-21T00:02:02;12.30;99.90
17807;DHT22;9027;48.938;9.182;2023-03-21T00:03:35;12.30;99.90
17807;DHT22;9027;48.938;9.182;2023-03-21T00:05:06;12.30;99.90
17807;DHT22;9027;48.938;9.182;2023-03-21T00:06:38;12.30;99.90
17807;DHT22;9027;48.938;9.182;2023-03-21T00:08:10;12.20;99.90
17807;DHT22;9027;48.938;9.182;2023-03-21T00:09:42;12.20;99.90
17807;DHT22;9027;48.938;9.182;2023-03-21T00:11:14;12.20;99.90
17807;DHT22;9027;48.938;9.182;2023-03-21T00:12:46;12.20;99.90
17807;DHT22;9027;48.938;9.182;2023-03-21T00:14:19;12.20;99.90
17807;DHT22;9027;48.938;9.182;2023-03-21T00:15:53;12.10;99.90
17807;DHT22;9027;48.938;9.182;2023-03-21T00:17:25;12.10;99.90
17807;DHT22;9027;48.938;9.182;2023-03-21T00:19:02;12.10;99.90
17807;DHT22;9027;48.938;9.182;2023-03-21T00:20:35;12.10;99.90
17807;DHT22;9027;48.938;9.182;2023-03-21T00:22:08;12.10;99.90
17807;DHT22;9027;48.938;9.182;2023-03-21T00:23:40;12.10;99.90
17807;DHT22;9027;48.938;9.182;2023-03-21T00:25:14;11.90;99.90
17807;DHT22;9027;48.938;9.182;2023-03-21T00:26:46;11.80;99.90
17807;DHT22;9027;48.938;9.182;2023-03-21T00:28:18;11.90;99.90
17807;DHT22;9027;48.938;9.182;2023-03-21T00:29:49;11.90;99.90
17807;DHT22;9027;48.938;9.182;2023-03-21T00:31:22;11.90;99.90
17807;DHT22;9027;48.938;9.182;2023-03-21T00:32:53;11.90;99.90
17807;DHT22;9027;48.938;9.182;2023-03-21T00:34:25;11.90;99.90
17807;DHT22;9027;48.938;9.182;2023-03-21T00:35:56;11.90;99.90
17807;DHT22;9027;48.938;9.182;2023-03-21T00:37:28;12.00;99.90
17807;DHT22;9027;48.938;9.182;2023-03-21T00:39:00;12.00;99.90
17807;DHT22;9027;48.938;9.182;2023-03-21T00:40:33;12.00;99.90
17807;DHT22;9027;48.938;9.182;2023-03-21T00:42:05;12.00;99.90
17807;DHT22;9027;48.938;9.182;2023-03-21T00:43:37;12.00;99.90
17807;DHT22;9027;48.938;9.182;2023-03-21T00:45:10;12.10;99.90
17807;DHT22;9027;48.938;9.182;2023-03-21T00:46:42;12.10;99.90
17807;DHT22;9027;48.938;9.182;2023-03-21T00:48:14;12.10;99.90
17807;DHT22;9027;48.938;9.182;2023-03-21T00:49:46;12.10;99.90
17807;DHT22;9027;48.938;9.182;2023-03-21T00:51:20;12.00;99.90
17807;DHT22;9027;48.938;9.182;2023-03-21T00:52:55;12.10;99.90
17807;DHT22;9027;48.938;9.182;2023-03-21T00:54:28;12.10;99.90
17807;DHT22;9027;48.938;9.182;2023-03-21T00:56:01;12.10;99.90
17807;DHT22;9027;48.938;9.182;2023-03-21T00:57:33;12.10;99.90
17807;DHT22;9027;48.938;9.182;2023-03-21T00:59:04;12.10;99.90
17807;DHT22;9027;48.938;9.182;2023-03-21T01:00:36;12.10;99.90
17807;DHT22;9027;48.938;9.182;2023-03-21T01:02:08;12.10;99.90
17807;DHT22;9027;48.938;9.182;2023-03-21T01:03:44;12.10;99.90
17807;DHT22;9027;48.938;9.182;2023-03-21T01:05:20;12.10;99.90
17807;DHT22;9027;48.938;9.182;2023-03-21T01:07:12;12.10;99.90
17807;DHT22;9027;48.938;9.182;2023-03-21T01:08:45;12.10;99.90
17807;DHT22;9027;48.938;9.182;2023-03-21T01:10:18;12.00;99.90
17807;DHT22;9027;48.938;9.182;2023-03-21T01:11:52;12.10;99.90
17807;DHT22;9027;48.938;9.182;2023-03-21T01:13:24;11.90;99.90
17807;DHT22;9027;48.938;9.182;2023-03-21T01:14:55;11.90;99.90
17807;DHT22;9027;48.938;9.182;2023-03-21T01:16:27;11.90;99.90
17807;DHT22;9027;48.938;9.182;2023-03-21T01:18:00;11.80;99.90
17807;DHT22;9027;48.938;9.182;2023-03-21T01:19:31;11.90;99.90
17807;DHT22;9027;48.938;9.182;2023-03-21T01:21:07;11.90;99.90
17807;DHT22;9027;48.938;9.182;2023-03-21T01:22:38;11.90;99.90
17807;DHT22;9027;48.938;9.182;2023-03-21T01:24:10;11.90;99.90
17807;DHT22;9027;48.938;9.182;2023-03-21T01:25:42;11.90;99.90
17807;DHT22;9027;48.938;9.182;2023-03-21T01:27:14;11.90;99.90
17807;DHT22;9027;48.938;9.182;2023-03-21T01:28:48;12.00;99.90
17807;DHT22;9027;48.938;9.182;2023-03-21T01:30:20;12.00;99.90
17807;DHT22;9027;48.938;9.182;2023-03-21T01:31:52;12.00;99.90
17807;DHT22;9027;48.938;9.182;2023-03-21T01:33:25;12.00;99.90
17807;DHT22;9027;48.938;9.182;2023-03-21T01:34:56;11.90;99.90
17807;DHT22;9027;48.938;9.182;2023-03-21T01:36:28;12.00;99.90
17807;DHT22;9027;48.938;9.182;2023-03-21T01:38:05;11.90;99.90
17807;DHT22;9027;48.938;9.182;2023-03-21T01:39:36;11.90;99.90
17807;DHT22;9027;48.938;9.182;2023-03-21T01:41:15;11.90;99.90
17807;DHT22;9027;48.938;9.182;2023-03-21T01:42:51;11.80;99.90
17807;DHT22;9027;48.938;9.182;2023-03-21T01:44:24;11.80;99.90
17807;DHT22;9027;48.938;9.182;2023-03-21T01:46:21;11.90;99.90
17807;DHT22;9027;48.938;9.182;2023-03-21T01:48:04;11.90;99.90
17807;DHT22;9027;48.938;9.182;2023-03-21T01:49:48;11.90;99.90
17807;DHT22;9027;48.938;9.182;2023-03-21T01:51:30;11.90;99.90
17807;DHT22;9027;48.938;9.182;2023-03-21T01:53:02;11.90;99.90
17807;DHT22;9027;48.938;9.182;2023-03-21T01:54:37;11.90;99.90
17807;DHT22;9027;48.938;9.182;2023-03-21T01:56:15;11.80;99.90
17807;DHT22;9027;48.938;9.182;2023-03-21T01:57:59;11.80;99.90
17807;DHT22;9027;48.938;9.182;2023-03-21T01:59:37;11.80;99.90
17807;DHT22;9027;48.938;9.182;2023-03-21T02:01:30;11.70;99.90
17807;DHT22;9027;48.938;9.182;2023-03-21T02:03:06;11.70;99.90
17807;DHT22;9027;48.938;9.182;2023-03-21T02:04:55;11.70;99.90
17807;DHT22;9027;48.938;9.182;2023-03-21T02:06:35;11.70;99.90
17807;DHT22;9027;48.938;9.182;2023-03-21T02:08:14;11.70;99.90
17807;DHT22;9027;48.938;9.182;2023-03-21T02:09:48;11.70;99.90
17807;DHT22;9027;48.938;9.182;2023-03-21T02:11:24;11.70;99.90
17807;DHT22;9027;48.938;9.182;2023-03-21T02:12:59;11.70;99.90
17807;DHT22;9027;48.938;9.182;2023-03-21T02:14:38;11.70;99.90
17807;DHT22;9027;48.938;9.182;2023-03-21T02:16:24;11.60;99.90
17807;DHT22;9027;48.938;9.182;2023-03-21T02:18:02;11.60;99.90
17807;DHT22;9027;48.938;9.182;2023-03-21T02:20:34;11.60;99.90
17807;DHT22;9027;48.938;9.182;2023-03-21T02:22:45;11.60;99.90
17807;DHT22;9027;48.938;9.182;2023-03-21T02:24:48;11.60;99.90
17807;DHT22;9027;48.938;9.182;2023-03-21T02:26:49;11.60;99.90
17807;DHT22;9027;48.938;9.182;2023-03-21T02:28:32;11.60;99.90
17807;DHT22;9027;48.938;9.182;2023-03-21T02:30:34;11.60;99.90
17807;DHT22;9027;48.938;9.182;2023-03-21T02:32:13;11.60;99.90
17807;DHT22;9027;48.938;9.182;2023-03-21T02:35:53;11.60;99.90
17807;DHT22;9027;48.938;9.182;2023-03-21T02:37:34;11.60;99.90
17807;DHT22;9027;48.938;9.182;2023-03-21T02:39:11;11.60;99.90
17807;DHT22;9027;48.938;9.182;2023-03-21T02:40:51;11.60;99.90
17807;DHT22;9027;48.938;9.182;2023-03-21T02:42:31;11.60;99.90
17807;DHT22;9027;48.938;9.182;2023-03-21T02:44:06;11.60;99.90
17807;DHT22;9027;48.938;9.182;2023-03-21T02:45:49;11.50;99.90
17807;DHT22;9027;48.938;9.182;2023-03-21T02:47:25;11.50;99.90
17807;DHT22;9027;48.938;9.182;2023-03-21T02:49:06;11.50;99.90
17807;DHT22;9027;48.938;9.182;2023-03-21T02:50:42;11.50;99.90
17807;DHT22;9027;48.938;9.182;2023-03-21T02:52:19;11.50;99.90
17807;DHT22;9027;48.938;9.182;2023-03-21T02:53:57;11.50;99.90
17807;DHT22;9027;48.938;9.182;2023-03-21T02:55:30;11.50;99.90
17807;DHT22;9027;48.938;9.182;2023-03-21T02:57:07;11.50;99.90
17807;DHT22;9027;48.938;9.182;2023-03-21T02:58:40;11.50;99.90
17807;DHT22;9027;48.938;9.182;2023-03-21T03:00:15;11.50;99.90
17807;DHT22;9027;48.938;9.182;2023-03-21T03:01:50;11.40;99.90
17807;DHT22;9027;48.938;9.182;2023-03-21T03:03:22;11.40;99.90
17807;DHT22;9027;48.938;9.182;2023-03-21T03:04:54;11.40;99.90
17807;DHT22;9027;48.938;9.182;2023-03-21T03:06:32;11.40;99.90
17807;DHT22;9027;48.938;9.182;2023-03-21T03:08:26;11.40;99.90
17807;DHT22;9027;48.938;9.182;2023-03-21T03:10:12;11.40;99.90
17807;DHT22;9027;48.938;9.182;2023-03-21T03:11:45;11.40;99.90
17807;DHT22;9027;48.938;9.182;2023-03-21T03:13:30;11.40;99.90
17807;DHT22;9027;48.938;9.182;2023-03-21T03:15:11;11.40;99.90
17807;DHT22;9027;48.938;9.182;2023-03-21T03:16:52;11.40;99.90
17807;DHT22;9027;48.938;9.182;2023-03-21T03:18:29;11.30;99.90
17807;DHT22;9027;48.938;9.182;2023-03-21T03:20:22;11.30;99.90
17807;DHT22;9027;48.938;9.182;2023-03-21T03:21:58;11.30;99.90
17807;DHT22;9027;48.938;9.182;2023-03-21T03:23:38;11.40;99.90
17807;DHT22;9027;48.938;9.182;2023-03-21T03:25:14;11.40;99.90
17807;DHT22;9027;48.938;9.182;2023-03-21T03:26:54;11.40;99.90
17807;DHT22;9027;48.938;9.182;2023-03-21T03:28:30;11.40;99.90
17807;DHT22;9027;48.938;9.182;2023-03-21T03:30:05;11.40;99.90
17807;DHT22;9027;48.938;9.182;2023-03-21T03:31:42;11.40;99.90
17807;DHT22;9027;48.938;9.182;2023-03-21T03:33:16;11.40;99.90
17807;DHT22;9027;48.938;9.182;2023-03-21T03:34:53;11.40;99.90
17807;DHT22;9027;48.938;9.182;2023-03-21T03:36:30;11.30;99.90
17807;DHT22;9027;48.938;9.182;2023-03-21T03:38:11;11.30;99.90
17807;DHT22;9027;48.938;9.182;2023-03-21T03:39:46;11.30;99.90
17807;DHT22;9027;48.938;9.182;2023-03-21T03:41:25;11.30;99.90
17807;DHT22;9027;48.938;9.182;2023-03-21T03:43:05;11.30;99.90
17807;DHT22;9027;48.938;9.182;2023-03-21T03:44:41;11.20;99.90
17807;DHT22;9027;48.938;9.182;2023-03-21T03:46:17;11.10;99.90
17807;DHT22;9027;48.938;9.182;2023-03-21T03:47:52;10.90;99.90
17807;DHT22;9027;48.938;9.182;2023-03-21T03:49:30;11.00;99.90
17807;DHT22;9027;48.938;9.182;2023-03-21T03:51:06;11.00;99.90
17807;DHT22;9027;48.938;9.182;2023-03-21T03:53:06;11.00;99.90
17807;DHT22;9027;48.938;9.182;2023-03-21T03:54:41;11.00;99.90
17807;DHT22;9027;48.938;9.182;2023-03-21T03:56:14;11.00;99.90
17807;DHT22;9027;48.938;9.182;2023-03-21T03:57:48;11.10;99.90
17807;DHT22;9027;48.938;9.182;2023-03-21T03:59:20;11.10;99.90
17807;DHT22;9027;48.938;9.182;2023-03-21T04:01:05;11.10;99.90
17807;DHT22;9027;48.938;9.182;2023-03-21T04:02:38;11.10;99.90
17807;DHT22;9027;48.938;9.182;2023-03-21T04:04:09;11.10;99.90
17807;DHT22;9027;48.938;9.182;2023-03-21T04:05:43;11.00;99.90
17807;DHT22;9027;48.938;9.182;2023-03-21T04:07:17;11.00;99.90
17807;DHT22;9027;48.938;9.182;2023-03-21T04:08:49;11.00;99.90
17807;DHT22;9027;48.938;9.182;2023-03-21T04:10:20;11.10;99.90
17807;DHT22;9027;48.938;9.182;2023-03-21T04:11:52;11.10;99.90
17807;DHT22;9027;48.938;9.182;2023-03-21T04:13:25;11.10;99.90
17807;DHT22;9027;48.938;9.182;2023-03-21T04:15:10;11.10;99.90
17807;DHT22;9027;48.938;9.182;2023-03-21T04:16:47;11.10;99.90
17807;DHT22;9027;48.938;9.182;2023-03-21T04:18:20;11.00;99.90
17807;DHT22;9027;48.938;9.182;2023-03-21T04:19:53;11.00;99.90
17807;DHT22;9027;48.938;9.182;2023-03-21T04:21:26;11.00;99.90
17807;DHT22;9027;48.938;9.182;2023-03-21T04:22:58;11.00;99.90
17807;DHT22;9027;48.938;9.182;2023-03-21T04:24:30;11.00;99.90
17807;DHT22;9027;48.938;9.182;2023-03-21T04:26:03;11.00;99.90
17807;DHT22;9027;48.938;9.182;2023-03-21T04:27:43;10.90;99.90
17807;DHT22;9027;48.938;9.182;2023-03-21T04:29:35;10.90;99.90
17807;DHT22;9027;48.938;9.182;2023-03-21T04:31:23;10.90;99.90
17807;DHT22;9027;48.938;9.182;2023-03-21T04:33:08;10.90;99.90
17807;DHT22;9027;48.938;9.182;2023-03-21T04:34:42;10.90;99.90
17807;DHT22;9027;48.938;9.182;2023-03-21T04:36:20;10.90;99.90
17807;DHT22;9027;48.938;9.182;2023-03-21T04:37:59;10.90;99.90
17807;DHT22;9027;48.938;9.182;2023-03-21T04:39:31;10.90;99.90
17807;DHT22;9027;48.938;9.182;2023-03-21T04:41:03;10.90;99.90
17807;DHT22;9027;48.938;9.182;2023-03-21T04:42:34;10.80;99.90
17807;DHT22;9027;48.938;9.182;2023-03-21T04:44:06;10.80;99.90
17807;DHT22;9027;48.938;9.182;2023-03-21T04:45:40;10.80;99.90
17807;DHT22;9027;48.938;9.182;2023-03-21T04:47:13;10.80;99.90
17807;DHT22;9027;48.938;9.182;2023-03-21T04:48:46;10.80;99.90
17807;DHT22;9027;48.938;9.182;2023-03-21T04:50:18;10.90;99.90
17807;DHT22;9027;48.938;9.182;2023-03-21T04:51:50;10.80;99.90
17807;DHT22;9027;48.938;9.182;2023-03-21T04:53:24;10.80;99.90
17807;DHT22;9027;48.938;9.182;2023-03-21T04:54:55;10.90;99.90
17807;DHT22;9027;48.938;9.182;2023-03-21T04:56:28;10.90;99.90
17807;DHT22;9027;48.938;9.182;2023-03-21T04:58:02;10.80;99.90
17807;DHT22;9027;48.938;9.182;2023-03-21T04:59:35;10.80;99.90
17807;DHT22;9027;48.938;9.182;2023-03-21T05:01:08;10.90;99.90
17807;DHT22;9027;48.938;9.182;2023-03-21T05:02:39;10.80;99.90
17807;DHT22;9027;48.938;9.182;2023-03-21T05:04:12;10.80;99.90
17807;DHT22;9027;48.938;9.182;2023-03-21T05:05:46;10.80;99.90
17807;DHT22;9027;48.938;9.182;2023-03-21T05:07:18;10.80;99.90
17807;DHT22;9027;48.938;9.182;2023-03-21T05:08:57;10.80;99.90
17807;DHT22;9027;48.938;9.182;2023-03-21T05:10:30;10.80;99.90
17807;DHT22;9027;48.938;9.182;2023-03-21T05:12:03;10.80;99.90
17807;DHT22;9027;48.938;9.182;2023-03-21T05:13:36;10.80;99.90
17807;DHT22;9027;48.938;9.182;2023-03-21T05:15:08;10.80;99.90
17807;DHT22;9027;48.938;9.182;2023-03-21T05:16:43;10.80;99.90
17807;DHT22;9027;48.938;9.182;2023-03-21T05:18:19;10.80;99.90
17807;DHT22;9027;48.938;9.182;2023-03-21T05:20:07;10.80;99.90
17807;DHT22;9027;48.938;9.182;2023-03-21T05:21:41;10.80;99.90
17807;DHT22;9027;48.938;9.182;2023-03-21T05:23:16;10.80;99.90
17807;DHT22;9027;48.938;9.182;2023-03-21T05:24:49;10.80;99.90
17807;DHT22;9027;48.938;9.182;2023-03-21T05:26:45;10.80;99.90
17807;DHT22;9027;48.938;9.182;2023-03-21T05:28:21;10.70;99.90
17807;DHT22;9027;48.938;9.182;2023-03-21T05:29:53;10.70;99.90
17807;DHT22;9027;48.938;9.182;2023-03-21T05:31:25;10.70;99.90
17807;DHT22;9027;48.938;9.182;2023-03-21T05:33:09;10.70;99.90
17807;DHT22;9027;48.938;9.182;2023-03-21T05:34:41;10.50;99.90
17807;DHT22;9027;48.938;9.182;2023-03-21T05:36:14;10.60;99.90
17807;DHT22;9027;48.938;9.182;2023-03-21T05:37:45;10.50;99.90
17807;DHT22;9027;48.938;9.182;2023-03-21T05:39:17;10.60;99.90
17807;DHT22;9027;48.938;9.182;2023-03-21T05:41:01;10.60;99.90
17807;DHT22;9027;48.938;9.182;2023-03-21T05:42:34;10.70;99.90
17807;DHT22;9027;48.938;9.182;2023-03-21T05:44:14;10.70;99.90
17807;DHT22;9027;48.938;9.182;2023-03-21T05:45:47;10.70;99.90
17807;DHT22;9027;48.938;9.182;2023-03-21T05:47:20;10.70;99.90
17807;DHT22;9027;48.938;9.182;2023-03-21T05:48:53;10.80;99.90
17807;DHT22;9027;48.938;9.182;2023-03-21T05:50:26;10.80;99.90
17807;DHT22;9027;48.938;9.182;2023-03-21T05:52:14;10.80;99.90
17807;DHT22;9027;48.938;9.182;2023-03-21T05:53:46;10.80;99.90
17807;DHT22;9027;48.938;9.182;2023-03-21T05:55:19;10.80;99.90
17807;DHT22;9027;48.938;9.182;2023-03-21T05:56:51;10.80;99.90
17807;DHT22;9027;48.938;9.182;2023-03-21T05:58:35;10.90;99.90
17807;DHT22;9027;48.938;9.182;2023-03-21T06:00:10;10.90;99.90
17807;DHT22;9027;48.938;9.182;2023-03-21T06:01:46;10.90;99.90
17807;DHT22;9027;48.938;9.182;2023-03-21T06:03:20;10.80;99.90
17807;DHT22;9027;48.938;9.182;2023-03-21T06:05:09;10.70;99.90
17807;DHT22;9027;48.938;9.182;2023-03-21T06:06:41;10.70;99.90
17807;DHT22;9027;48.938;9.182;2023-03-21T06:08:13;10.80;99.90
17807;DHT22;9027;48.938;9.182;2023-03-21T06:09:45;10.90;99.90
17807;DHT22;9027;48.938;9.182;2023-03-21T06:11:24;10.90;99.90
17807;DHT22;9027;48.938;9.182;2023-03-21T06:13:05;11.00;99.90
17807;DHT22;9027;48.938;9.182;2023-03-21T06:14:38;11.10;99.90
17807;DHT22;9027;48.938;9.182;2023-03-21T06:16:18;11.10;99.90
17807;DHT22;9027;48.938;9.182;2023-03-21T06:17:50;11.20;99.90
17807;DHT22;9027;48.938;9.182;2023-03-21T06:19:22;11.20;99.90
17807;DHT22;9027;48.938;9.182;2023-03-21T06:21:12;11.20;99.90
17807;DHT22;9027;48.938;9.182;2023-03-21T06:22:45;11.20;99.90
17807;DHT22;9027;48.938;9.182;2023-03-21T06:24:16;11.30;99.90
17807;DHT22;9027;48.938;9.182;2023-03-21T06:25:48;11.20;99.90
17807;DHT22;9027;48.938;9.182;2023-03-21T06:27:20;11.20;99.90
17807;DHT22;9027;48.938;9.182;2023-03-21T06:28:58;11.20;99.90
17807;DHT22;9027;48.938;9.182;2023-03-21T06:30:30;11.20;99.90
17807;DHT22;9027;48.938;9.182;2023-03-21T06:32:10;11.20;99.90
17807;DHT22;9027;48.938;9.182;2023-03-21T06:33:42;11.30;99.90
17807;DHT22;9027;48.938;9.182;2023-03-21T06:35:14;11.30;99.90
17807;DHT22;9027;48.938;9.182;2023-03-21T06:36:48;11.40;99.90
17807;DHT22;9027;48.938;9.182;2023-03-21T06:38:23;11.50;99.90
17807;DHT22;9027;48.938;9.182;2023-03-21T06:39:55;11.60;99.90
17807;DHT22;9027;48.938;9.182;2023-03-21T06:41:28;11.60;99.90
17807;DHT22;9027;48.938;9.182;2023-03-21T06:43:04;11.70;99.90
17807;DHT22;9027;48.938;9.182;2023-03-21T06:44:36;11.70;99.90
17807;DHT22;9027;48.938;9.182;2023-03-21T06:46:12;11.60;99.90
17807;DHT22;9027;48.938;9.182;2023-03-21T06:47:44;11.60;99.90
17807;DHT22;9027;48.938;9.182;2023-03-21T06:49:29;11.70;99.90
17807;DHT22;9027;48.938;9.182;2023-03-21T06:51:05;11.90;99.90
17807;DHT22;9027;48.938;9.182;2023-03-21T06:52:39;12.10;99.90
17807;DHT22;9027;48.938;9.182;2023-03-21T06:54:12;12.50;99.90
17807;DHT22;9027;48.938;9.182;2023-03-21T06:56:03;13.20;99.90
17807;DHT22;9027;48.938;9.182;2023-03-21T06:57:36;14.40;99.90
17807;DHT22;9027;48.938;9.182;2023-03-21T06:59:10;15.40;99.90
17807;DHT22;9027;48.938;9.182;2023-03-21T07:00:56;16.20;99.90
17807;DHT22;9027;48.938;9.182;2023-03-21T07:02:29;17.00;99.90
17807;DHT22;9027;48.938;9.182;2023-03-21T07:04:09;17.70;99.90
17807;DHT22;9027;48.938;9.182;2023-03-21T07:05:42;18.40;99.90
17807;DHT22;9027;48.938;9.182;2023-03-21T07:07:13;18.90;99.90
17807;DHT22;9027;48.938;9.182;2023-03-21T07:08:46;19.30;99.90
17807;DHT22;9027;48.938;9.182;2023-03-21T07:10:19;19.50;99.90
17807;DHT22;9027;48.938;9.182;2023-03-21T07:11:57;19.50;99.90
17807;DHT22;9027;48.938;9.182;2023-03-21T07:13:38;19.80;99.90
17807;DHT22;9027;48.938;9.182;2023-03-21T07:15:11;19.80;99.90
17807;DHT22;9027;48.938;9.182;2023-03-21T07:16:45;19.90;99.90
17807;DHT22;9027;48.938;9.182;2023-03-21T07:18:17;20.40;99.90
17807;DHT22;9027;48.938;9.182;2023-03-21T07:19:49;20.30;99.90
17807;DHT22;9027;48.938;9.182;2023-03-21T07:21:22;20.30;99.90
17807;DHT22;9027;48.938;9.182;2023-03-21T07:22:55;20.40;99.90
17807;DHT22;9027;48.938;9.182;2023-03-21T07:24:28;20.60;99.90
17807;DHT22;9027;48.938;9.182;2023-03-21T07:26:00;20.60;99.90
17807;DHT22;9027;48.938;9.182;2023-03-21T07:27:32;20.90;99.90
17807;DHT22;9027;48.938;9.182;2023-03-21T07:29:04;21.20;99.90
17807;DHT22;9027;48.938;9.182;2023-03-21T07:30:36;21.40;99.90
17807;DHT22;9027;48.938;9.182;2023-03-21T07:32:10;21.60;99.90
17807;DHT22;9027;48.938;9.182;2023-03-21T07:33:42;21.70;99.90
17807;DHT22;9027;48.938;9.182;2023-03-21T07:35:16;21.10;99.90
17807;DHT22;9027;48.938;9.182;2023-03-21T07:36:48;21.30;99.90
17807;DHT22;9027;48.938;9.182;2023-03-21T07:38:20;21.80;99.90
17807;DHT22;9027;48.938;9.182;2023-03-21T07:39:54;21.20;99.90
17807;DHT22;9027;48.938;9.182;2023-03-21T07:41:28;21.30;99.90
17807;DHT22;9027;48.938;9.182;2023-03-21T07:43:14;20.90;99.00
17807;DHT22;9027;48.938;9.182;2023-03-21T07:44:47;20.60;99.50
17807;DHT22;9027;48.938;9.182;2023-03-21T07:46:20;20.80;99.80
17807;DHT22;9027;48.938;9.182;2023-03-21T07:47:52;21.50;99.10
17807;DHT22;9027;48.938;9.182;2023-03-21T07:49:25;21.80;98.30
17807;DHT22;9027;48.938;9.182;2023-03-21T07:50:57;22.10;98.30
17807;DHT22;9027;48.938;9.182;2023-03-21T07:52:29;21.40;97.30
17807;DHT22;9027;48.938;9.182;2023-03-21T07:54:01;21.40;97.90
17807;DHT22;9027;48.938;9.182;2023-03-21T07:55:34;21.60;98.30
17807;DHT22;9027;48.938;9.182;2023-03-21T07:57:06;20.70;98.70
17807;DHT22;9027;48.938;9.182;2023-03-21T07:58:38;20.70;98.70
17807;DHT22;9027;48.938;9.182;2023-03-21T08:00:11;20.60;99.30
17807;DHT22;9027;48.938;9.182;2023-03-21T08:01:46;20.90;98.70
17807;DHT22;9027;48.938;9.182;2023-03-21T08:03:18;20.70;98.40
17807;DHT22;9027;48.938;9.182;2023-03-21T08:04:50;20.50;98.30
17807;DHT22;9027;48.938;9.182;2023-03-21T08:06:26;20.00;99.10
17807;DHT22;9027;48.938;9.182;2023-03-21T08:07:58;19.50;99.90
17807;DHT22;9027;48.938;9.182;2023-03-21T08:09:30;19.70;99.90
17807;DHT22;9027;48.938;9.182;2023-03-21T08:11:04;19.30;99.90
17807;DHT22;9027;48.938;9.182;2023-03-21T08:12:36;19.30;99.90
17807;DHT22;9027;48.938;9.182;2023-03-21T08:14:08;19.40;99.90
17807;DHT22;9027;48.938;9.182;2023-03-21T08:15:40;19.70;99.90
17807;DHT22;9027;48.938;9.182;2023-03-21T08:17:12;19.90;99.90
17807;DHT22;9027;48.938;9.182;2023-03-21T08:18:44;20.20;99.90
17807;DHT22;9027;48.938;9.182;2023-03-21T08:20:19;20.50;99.80
17807;DHT22;9027;48.938;9.182;2023-03-21T08:21:51;20.50;99.20
17807;DHT22;9027;48.938;9.182;2023-03-21T08:23:24;20.70;99.70
17807;DHT22;9027;48.938;9.182;2023-03-21T08:24:56;20.80;99.20
17807;DHT22;9027;48.938;9.182;2023-03-21T08:26:29;20.90;99.50
17807;DHT22;9027;48.938;9.182;2023-03-21T08:28:02;21.10;99.90
17807;DHT22;9027;48.938;9.182;2023-03-21T08:29:34;21.20;99.20
17807;DHT22;9027;48.938;9.182;2023-03-21T08:31:11;21.10;98.80
17807;DHT22;9027;48.938;9.182;2023-03-21T08:32:43;21.00;98.50
17807;DHT22;9027;48.938;9.182;2023-03-21T08:34:15;21.10;98.90
17807;DHT22;9027;48.938;9.182;2023-03-21T08:35:49;20.80;99.10
17807;DHT22;9027;48.938;9.182;2023-03-21T08:37:21;20.70;99.10
17807;DHT22;9027;48.938;9.182;2023-03-21T08:38:52;20.70;99.00
17807;DHT22;9027;48.938;9.182;2023-03-21T08:40:33;20.80;99.90
17807;DHT22;9027;48.938;9.182;2023-03-21T08:42:07;21.00;98.40
17807;DHT22;9027;48.938;9.182;2023-03-21T08:43:39;21.10;96.80
17807;DHT22;9027;48.938;9.182;2023-03-21T08:45:13;20.80;96.70
17807;DHT22;9027;48.938;9.182;2023-03-21T08:46:45;20.10;95.90
17807;DHT22;9027;48.938;9.182;2023-03-21T08:48:17;19.30;97.10
17807;DHT22;9027;48.938;9.182;2023-03-21T08:49:49;19.00;97.70
17807;DHT22;9027;48.938;9.182;2023-03-21T08:51:21;19.10;97.70
17807;DHT22;9027;48.938;9.182;2023-03-21T08:52:53;19.20;98.90
17807;DHT22;9027;48.938;9.182;2023-03-21T08:54:24;19.70;97.40
17807;DHT22;9027;48.938;9.182;2023-03-21T08:55:57;19.70;97.00
17807;DHT22;9027;48.938;9.182;2023-03-21T08:57:30;20.20;98.20
17807;DHT22;9027;48.938;9.182;2023-03-21T08:59:02;20.60;96.20
17807;DHT22;9027;48.938;9.182;2023-03-21T09:00:34;20.60;96.40
17807;DHT22;9027;48.938;9.182;2023-03-21T09:02:06;20.80;95.10
17807;DHT22;9027;48.938;9.182;2023-03-21T09:03:38;20.70;93.60
17807;DHT22;9027;48.938;9.182;2023-03-21T09:05:10;19.90;93.10
17807;DHT22;9027;48.938;9.182;2023-03-21T09:06:42;19.50;94.40
17807;DHT22;9027;48.938;9.182;2023-03-21T09:08:17;19.40;94.80
17807;DHT22;9027;48.938;9.182;2023-03-21T09:09:52;19.60;94.20
17807;DHT22;9027;48.938;9.182;2023-03-21T09:11:24;20.10;95.10
17807;DHT22;9027;48.938;9.182;2023-03-21T09:12:58;20.50;93.50
17807;DHT22;9027;48.938;9.182;2023-03-21T09:14:30;20.80;93.00
17807;DHT22;9027;48.938;9.182;2023-03-21T09:16:02;21.00;93.00
17807;DHT22;9027;48.938;9.182;2023-03-21T09:17:34;21.20;92.00
17807;DHT22;9027;48.938;9.182;2023-03-21T09:19:09;20.90;91.90
17807;DHT22;9027;48.938;9.182;2023-03-21T09:20:41;21.00;91.90
17807;DHT22;9027;48.938;9.182;2023-03-21T09:22:14;20.80;91.20
17807;DHT22;9027;48.938;9.182;2023-03-21T09:23:48;20.70;91.50
17807;DHT22;9027;48.938;9.182;2023-03-21T09:25:22;20.50;90.50
17807;DHT22;9027;48.938;9.182;2023-03-21T09:26:54;20.60;90.40
17807;DHT22;9027;48.938;9.182;2023-03-21T09:28:28;20.50;90.70
17807;DHT22;9027;48.938;9.182;2023-03-21T09:30:00;20.50;91.90
17807;DHT22;9027;48.938;9.182;2023-03-21T09:31:33;20.50;91.10
17807;DHT22;9027;48.938;9.182;2023-03-21T09:33:05;20.60;90.50
17807;DHT22;9027;48.938;9.182;2023-03-21T09:34:42;20.50;91.60
17807;DHT22;9027;48.938;9.182;2023-03-21T09:36:20;20.80;91.90
17807;DHT22;9027;48.938;9.182;2023-03-21T09:37:54;21.00;91.10
17807;DHT22;9027;48.938;9.182;2023-03-21T09:39:27;20.80;90.90
17807;DHT22;9027;48.938;9.182;2023-03-21T09:41:06;20.80;91.00
17807;DHT22;9027;48.938;9.182;2023-03-21T09:42:45;20.20;90.20
17807;DHT22;9027;48.938;9.182;2023-03-21T09:44:33;19.90;91.10
17807;DHT22;9027;48.938;9.182;2023-03-21T09:46:12;19.00;91.80
17807;DHT22;9027;48.938;9.182;2023-03-21T09:47:48;18.80;91.60
17807;DHT22;9027;48.938;9.182;2023-03-21T09:49:26;18.80;91.70
17807;DHT22;9027;48.938;9.182;2023-03-21T09:51:01;19.10;92.00
17807;DHT22;9027;48.938;9.182;2023-03-21T09:52:40;19.30;91.50
17807;DHT22;9027;48.938;9.182;2023-03-21T09:54:18;19.30;91.60
17807;DHT22;9027;48.938;9.182;2023-03-21T09:55:53;19.20;92.00
17807;DHT22;9027;48.938;9.182;2023-03-21T09:57:30;18.90;92.30
17807;DHT22;9027;48.938;9.182;2023-03-21T09:59:04;19.10;92.00
17807;DHT22;9027;48.938;9.182;2023-03-21T10:00:43;19.50;91.20
17807;DHT22;9027;48.938;9.182;2023-03-21T10:02:25;19.40;91.00
17807;DHT22;9027;48.938;9.182;2023-03-21T10:04:04;19.60;91.00
17807;DHT22;9027;48.938;9.182;2023-03-21T10:05:37;19.70;90.50
17807;DHT22;9027;48.938;9.182;2023-03-21T10:07:14;19.50;90.50
17807;DHT22;9027;48.938;9.182;2023-03-21T10:08:48;19.30;91.10
17807;DHT22;9027;48.938;9.182;2023-03-21T10:10:26;19.40;92.00
17807;DHT22;9027;48.938;9.182;2023-03-21T10:12:02;19.60;91.30
17807;DHT22;9027;48.938;9.182;2023-03-21T10:13:41;19.60;91.20
17807;DHT22;9027;48.938;9.182;2023-03-21T10:15:16;19.40;91.00